Aérodrome :
LOGIN :

S'inscrire | Disclaimer

   EN    FR    IT 

 










Légende :    VFR   VFR Marginal   IFR   IFR Intensif   IFR Très Intensif
Visi : 
Plafond : 
>= 8 km
>= 3000ft
5 à 8 km
1000 à 3000 ft
1500m à 5 km
500 à 1000 ft
800 à 1500m
200 à 500 ft
< 800m
< 200 ft
Symboles :   Orages  Brouillard  Fortes neiges  Fortes précipitations  Vent > 20 kt
SIGMETs :   Divers  Orages  Givrage  Turbulence  Onde Orograph.  Cendres Volcan.







- Altitude de l'aérodrome : 587 ft
- Code IATA : XCR
- Voir les cartes d'approche


LFOK - Chalons Vatry

DERNIER METAR :
  • 242030Z AUTO 16005KT CAVOK 12/08 Q1014 BECMG 23010KT

METARs EXPIRÉS :
  • 242000Z AUTO 18004KT CAVOK 14/09 Q1014 NOSIG
  • 241930Z AUTO 18003KT CAVOK 14/09 Q1014 NOSIG
  • 241900Z AUTO 19004KT CAVOK 14/10 Q1015 NOSIG
  • 241830Z AUTO 20004KT CAVOK 15/10 Q1015 NOSIG
  • 241800Z AUTO 22005KT CAVOK 17/10 Q1015 NOSIG

TAF TAF LFOK
Valide du 24 à 18h jusqu'au 25 à 18h UTC


241700Z 2418/2518 23010KT CAVOK
BECMG 2505/2507 BKN006
BECMG 2507/2509 BKN020
TEMPO 2511/2514 27015G25KT 3000 SHRA BKN020TCU
Pas de NOTAMs connus pour ce terrain.



MET'MAP, la Météo Aéronautique d'un coup d'oeil ! - Copyright ORBIFLY Décembre 2007 - Disclaimer

ORBIFLY MET'MAP TEAM :

Programmation & Développement : Alexandra Zaïnal
Conception & Développement : Baudouin d'Aumeries
Co-Programmation & Développement : Marc-Olivier Méhu
Soutien technique & logistique : Manuel Goepfert

Contact : metmap@orbifly.com




SOURCES & CREDITS :

   NOAA